Spurgeon, Indiana
Current Conditions -  °F | °C
As of 4:55 AM on Thursday 27 Nov 2014 (Local Time) from KHNB Reporting Station
Overcast Overcast  
Wind Chill: 20°   Ceiling: 1000
Heat Index: 30°   Visibility: 7mi
Dew Point: 27°   Wind: 13mph
Humidity: 86%   Direction: 320°NW
Pressure: 30.26"   Gusts: NA
Location:  38.25°N, 87.26°W
Report Text: KHNB 271055Z AUTO 32011KT 7SM BKN010 OVC060 M01/M03 A3026 RMK AO1
Loading
Personal Weather Stations






























Interactive Weather Map New forecast layout! Learn more

10-Day Weather Forecast

Advertisements
Track Severe Weather on mobile